sensor_id;sensor_type;location;lat;lon;timestamp;temperature;humidity
70947;DHT22;58605;48.700;8.760;2023-04-15T00:01:37;1.80;99.90
70947;DHT22;58605;48.700;8.760;2023-04-15T00:04:03;1.60;99.90
70947;DHT22;58605;48.700;8.760;2023-04-15T00:06:31;1.60;99.90
70947;DHT22;58605;48.700;8.760;2023-04-15T00:08:57;1.70;99.90
70947;DHT22;58605;48.700;8.760;2023-04-15T00:11:23;1.60;99.90
70947;DHT22;58605;48.700;8.760;2023-04-15T00:13:49;1.60;99.90
70947;DHT22;58605;48.700;8.760;2023-04-15T00:16:16;1.60;99.90
70947;DHT22;58605;48.700;8.760;2023-04-15T00:18:42;1.60;99.90
70947;DHT22;58605;48.700;8.760;2023-04-15T00:21:08;1.60;99.90
70947;DHT22;58605;48.700;8.760;2023-04-15T00:23:35;1.50;99.90
70947;DHT22;58605;48.700;8.760;2023-04-15T00:26:01;1.40;99.90
70947;DHT22;58605;48.700;8.760;2023-04-15T00:28:28;1.40;99.90
70947;DHT22;58605;48.700;8.760;2023-04-15T00:30:54;1.30;99.90
70947;DHT22;58605;48.700;8.760;2023-04-15T00:33:20;1.30;99.90
70947;DHT22;58605;48.700;8.760;2023-04-15T00:35:46;1.40;99.90
70947;DHT22;58605;48.700;8.760;2023-04-15T00:38:12;1.40;99.90
70947;DHT22;58605;48.700;8.760;2023-04-15T00:40:40;1.40;99.90
70947;DHT22;58605;48.700;8.760;2023-04-15T00:43:07;1.40;99.90
70947;DHT22;58605;48.700;8.760;2023-04-15T00:45:33;1.40;99.90
70947;DHT22;58605;48.700;8.760;2023-04-15T00:47:59;1.40;99.90
70947;DHT22;58605;48.700;8.760;2023-04-15T00:50:25;1.40;99.90
70947;DHT22;58605;48.700;8.760;2023-04-15T00:52:51;1.30;99.90
70947;DHT22;58605;48.700;8.760;2023-04-15T00:55:17;1.20;99.90
70947;DHT22;58605;48.700;8.760;2023-04-15T00:57:45;1.10;99.90
70947;DHT22;58605;48.700;8.760;2023-04-15T01:00:12;1.00;99.90
70947;DHT22;58605;48.700;8.760;2023-04-15T01:02:38;0.90;99.90
70947;DHT22;58605;48.700;8.760;2023-04-15T01:05:04;0.70;99.90
70947;DHT22;58605;48.700;8.760;2023-04-15T01:07:31;0.70;99.90
70947;DHT22;58605;48.700;8.760;2023-04-15T01:09:57;0.80;99.90
70947;DHT22;58605;48.700;8.760;2023-04-15T01:12:23;0.90;99.90
70947;DHT22;58605;48.700;8.760;2023-04-15T01:14:52;0.90;99.90
70947;DHT22;58605;48.700;8.760;2023-04-15T01:17:18;1.00;99.90
70947;DHT22;58605;48.700;8.760;2023-04-15T01:19:45;0.90;99.90
70947;DHT22;58605;48.700;8.760;2023-04-15T01:22:11;1.00;99.90
70947;DHT22;58605;48.700;8.760;2023-04-15T01:24:37;1.00;99.90
70947;DHT22;58605;48.700;8.760;2023-04-15T01:27:05;1.00;99.90
70947;DHT22;58605;48.700;8.760;2023-04-15T01:29:31;1.00;99.90
70947;DHT22;58605;48.700;8.760;2023-04-15T01:31:58;1.00;99.90
70947;DHT22;58605;48.700;8.760;2023-04-15T01:34:24;0.90;99.90
70947;DHT22;58605;48.700;8.760;2023-04-15T01:36:50;1.00;99.90
70947;DHT22;58605;48.700;8.760;2023-04-15T01:39:16;0.90;99.90
70947;DHT22;58605;48.700;8.760;2023-04-15T01:41:42;1.00;99.90
70947;DHT22;58605;48.700;8.760;2023-04-15T01:44:10;1.10;99.90
70947;DHT22;58605;48.700;8.760;2023-04-15T01:46:36;1.10;99.90
70947;DHT22;58605;48.700;8.760;2023-04-15T01:49:02;1.10;99.90
70947;DHT22;58605;48.700;8.760;2023-04-15T01:51:28;1.00;99.90
70947;DHT22;58605;48.700;8.760;2023-04-15T01:53:54;1.00;99.90
70947;DHT22;58605;48.700;8.760;2023-04-15T01:56:21;1.00;99.90
70947;DHT22;58605;48.700;8.760;2023-04-15T01:58:49;1.10;99.90
70947;DHT22;58605;48.700;8.760;2023-04-15T02:01:16;1.00;99.90
70947;DHT22;58605;48.700;8.760;2023-04-15T02:03:44;1.00;99.90
70947;DHT22;58605;48.700;8.760;2023-04-15T02:06:14;0.90;99.90
70947;DHT22;58605;48.700;8.760;2023-04-15T02:08:40;0.90;99.90
70947;DHT22;58605;48.700;8.760;2023-04-15T02:11:06;0.90;99.90
70947;DHT22;58605;48.700;8.760;2023-04-15T02:13:33;0.90;99.90
70947;DHT22;58605;48.700;8.760;2023-04-15T02:15:58;0.80;99.90
70947;DHT22;58605;48.700;8.760;2023-04-15T02:18:26;0.70;99.90
70947;DHT22;58605;48.700;8.760;2023-04-15T02:20:52;0.60;99.90
70947;DHT22;58605;48.700;8.760;2023-04-15T02:23:18;0.70;99.90
70947;DHT22;58605;48.700;8.760;2023-04-15T02:25:44;0.70;99.90
70947;DHT22;58605;48.700;8.760;2023-04-15T02:28:10;0.50;99.90
70947;DHT22;58605;48.700;8.760;2023-04-15T02:30:36;0.40;99.90
70947;DHT22;58605;48.700;8.760;2023-04-15T02:33:02;0.30;99.90
70947;DHT22;58605;48.700;8.760;2023-04-15T02:35:29;0.40;99.90
70947;DHT22;58605;48.700;8.760;2023-04-15T02:37:55;0.50;99.90
70947;DHT22;58605;48.700;8.760;2023-04-15T02:40:21;0.50;99.90
70947;DHT22;58605;48.700;8.760;2023-04-15T02:42:48;0.50;99.90
70947;DHT22;58605;48.700;8.760;2023-04-15T02:45:14;0.40;99.90
70947;DHT22;58605;48.700;8.760;2023-04-15T02:47:40;0.40;99.90
70947;DHT22;58605;48.700;8.760;2023-04-15T02:50:08;0.40;99.90
70947;DHT22;58605;48.700;8.760;2023-04-15T02:52:36;0.40;99.90
70947;DHT22;58605;48.700;8.760;2023-04-15T02:55:02;0.50;99.90
70947;DHT22;58605;48.700;8.760;2023-04-15T02:57:29;0.50;99.90
70947;DHT22;58605;48.700;8.760;2023-04-15T02:59:55;0.40;99.90
70947;DHT22;58605;48.700;8.760;2023-04-15T03:02:21;0.50;99.90
70947;DHT22;58605;48.700;8.760;2023-04-15T03:04:47;0.60;99.90
70947;DHT22;58605;48.700;8.760;2023-04-15T03:07:13;0.70;99.90
70947;DHT22;58605;48.700;8.760;2023-04-15T03:09:40;0.70;99.90
70947;DHT22;58605;48.700;8.760;2023-04-15T03:12:06;0.70;99.90
70947;DHT22;58605;48.700;8.760;2023-04-15T03:14:32;0.70;99.90
70947;DHT22;58605;48.700;8.760;2023-04-15T03:16:58;0.70;99.90
70947;DHT22;58605;48.700;8.760;2023-04-15T03:19:24;0.70;99.90
70947;DHT22;58605;48.700;8.760;2023-04-15T03:21:51;0.60;99.90
70947;DHT22;58605;48.700;8.760;2023-04-15T03:24:16;0.60;99.90
70947;DHT22;58605;48.700;8.760;2023-04-15T03:26:44;0.50;99.90
70947;DHT22;58605;48.700;8.760;2023-04-15T03:29:10;0.50;99.90
70947;DHT22;58605;48.700;8.760;2023-04-15T03:31:36;0.40;99.90
70947;DHT22;58605;48.700;8.760;2023-04-15T03:34:02;0.40;99.90
70947;DHT22;58605;48.700;8.760;2023-04-15T03:36:29;0.30;99.90
70947;DHT22;58605;48.700;8.760;2023-04-15T03:38:57;0.30;99.90
70947;DHT22;58605;48.700;8.760;2023-04-15T03:41:23;0.30;99.90
70947;DHT22;58605;48.700;8.760;2023-04-15T03:43:50;0.30;99.90
70947;DHT22;58605;48.700;8.760;2023-04-15T03:46:16;0.30;99.90
70947;DHT22;58605;48.700;8.760;2023-04-15T03:48:42;0.20;99.90
70947;DHT22;58605;48.700;8.760;2023-04-15T03:51:08;0.20;99.90
70947;DHT22;58605;48.700;8.760;2023-04-15T03:53:34;0.30;99.90
70947;DHT22;58605;48.700;8.760;2023-04-15T03:56:00;0.30;99.90
70947;DHT22;58605;48.700;8.760;2023-04-15T03:58:26;0.30;99.90
70947;DHT22;58605;48.700;8.760;2023-04-15T04:00:54;0.30;99.90
70947;DHT22;58605;48.700;8.760;2023-04-15T04:03:20;0.20;99.90
70947;DHT22;58605;48.700;8.760;2023-04-15T04:05:46;0.10;99.90
70947;DHT22;58605;48.700;8.760;2023-04-15T04:08:12;0.10;99.90
70947;DHT22;58605;48.700;8.760;2023-04-15T04:10:38;0.10;99.90
70947;DHT22;58605;48.700;8.760;2023-04-15T04:13:05;0.10;99.90
70947;DHT22;58605;48.700;8.760;2023-04-15T04:15:30;0.20;99.90
70947;DHT22;58605;48.700;8.760;2023-04-15T04:17:58;0.30;99.90
70947;DHT22;58605;48.700;8.760;2023-04-15T04:20:24;0.30;99.90
70947;DHT22;58605;48.700;8.760;2023-04-15T04:22:50;0.20;99.90
70947;DHT22;58605;48.700;8.760;2023-04-15T04:25:16;0.10;99.90
70947;DHT22;58605;48.700;8.760;2023-04-15T04:27:42;0.00;99.90
70947;DHT22;58605;48.700;8.760;2023-04-15T04:30:10;-0.10;99.90
70947;DHT22;58605;48.700;8.760;2023-04-15T04:32:36;0.00;99.90
70947;DHT22;58605;48.700;8.760;2023-04-15T04:35:04;0.00;99.90
70947;DHT22;58605;48.700;8.760;2023-04-15T04:37:30;0.00;99.90
70947;DHT22;58605;48.700;8.760;2023-04-15T04:39:56;0.00;99.90
70947;DHT22;58605;48.700;8.760;2023-04-15T04:42:22;0.00;99.90
70947;DHT22;58605;48.700;8.760;2023-04-15T04:44:48;0.00;99.90
70947;DHT22;58605;48.700;8.760;2023-04-15T04:47:14;0.00;99.90
70947;DHT22;58605;48.700;8.760;2023-04-15T04:49:40;0.10;99.90
70947;DHT22;58605;48.700;8.760;2023-04-15T04:52:08;0.10;99.90
70947;DHT22;58605;48.700;8.760;2023-04-15T04:54:34;0.10;99.90
70947;DHT22;58605;48.700;8.760;2023-04-15T04:57:00;0.10;99.90
70947;DHT22;58605;48.700;8.760;2023-04-15T04:59:26;0.00;99.90
70947;DHT22;58605;48.700;8.760;2023-04-15T05:01:52;0.00;99.90
70947;DHT22;58605;48.700;8.760;2023-04-15T05:04:18;0.00;99.90
70947;DHT22;58605;48.700;8.760;2023-04-15T05:06:44;0.00;99.90
70947;DHT22;58605;48.700;8.760;2023-04-15T05:09:12;0.00;99.90
70947;DHT22;58605;48.700;8.760;2023-04-15T05:11:38;0.00;99.90
70947;DHT22;58605;48.700;8.760;2023-04-15T05:14:04;0.00;99.90
70947;DHT22;58605;48.700;8.760;2023-04-15T05:16:29;0.00;99.90
70947;DHT22;58605;48.700;8.760;2023-04-15T05:18:56;0.00;99.90
70947;DHT22;58605;48.700;8.760;2023-04-15T05:21:22;0.00;99.90
70947;DHT22;58605;48.700;8.760;2023-04-15T05:23:49;0.10;99.90
70947;DHT22;58605;48.700;8.760;2023-04-15T05:26:16;0.20;99.90
70947;DHT22;58605;48.700;8.760;2023-04-15T05:28:42;0.20;99.90
70947;DHT22;58605;48.700;8.760;2023-04-15T05:31:08;0.20;99.90
70947;DHT22;58605;48.700;8.760;2023-04-15T05:33:34;0.30;99.90
70947;DHT22;58605;48.700;8.760;2023-04-15T05:36:00;0.40;99.90
70947;DHT22;58605;48.700;8.760;2023-04-15T05:38:26;0.50;99.90
70947;DHT22;58605;48.700;8.760;2023-04-15T05:40:52;0.60;99.90
70947;DHT22;58605;48.700;8.760;2023-04-15T05:43:20;0.60;99.90
70947;DHT22;58605;48.700;8.760;2023-04-15T05:45:46;0.70;99.90
70947;DHT22;58605;48.700;8.760;2023-04-15T05:48:12;0.80;99.90
70947;DHT22;58605;48.700;8.760;2023-04-15T05:50:40;0.90;99.90
70947;DHT22;58605;48.700;8.760;2023-04-15T05:53:06;0.90;99.90
70947;DHT22;58605;48.700;8.760;2023-04-15T05:55:32;0.90;99.90
70947;DHT22;58605;48.700;8.760;2023-04-15T05:57:58;0.90;99.90
70947;DHT22;58605;48.700;8.760;2023-04-15T06:00:26;0.90;99.90
70947;DHT22;58605;48.700;8.760;2023-04-15T06:02:52;1.00;99.90
70947;DHT22;58605;48.700;8.760;2023-04-15T06:05:18;1.10;99.90
70947;DHT22;58605;48.700;8.760;2023-04-15T06:07:44;1.10;99.90
70947;DHT22;58605;48.700;8.760;2023-04-15T06:10:11;1.20;99.90
70947;DHT22;58605;48.700;8.760;2023-04-15T06:12:37;1.30;99.90
70947;DHT22;58605;48.700;8.760;2023-04-15T06:15:03;1.30;99.90
70947;DHT22;58605;48.700;8.760;2023-04-15T06:17:32;1.40;99.90
70947;DHT22;58605;48.700;8.760;2023-04-15T06:19:58;1.50;99.90
70947;DHT22;58605;48.700;8.760;2023-04-15T06:22:24;1.50;99.90
70947;DHT22;58605;48.700;8.760;2023-04-15T06:24:50;1.60;99.90
70947;DHT22;58605;48.700;8.760;2023-04-15T06:27:16;1.60;99.90
70947;DHT22;58605;48.700;8.760;2023-04-15T06:29:43;1.60;99.90
70947;DHT22;58605;48.700;8.760;2023-04-15T06:32:09;1.70;99.90
70947;DHT22;58605;48.700;8.760;2023-04-15T06:34:37;1.80;99.90
70947;DHT22;58605;48.700;8.760;2023-04-15T06:37:03;1.90;99.90
70947;DHT22;58605;48.700;8.760;2023-04-15T06:39:29;2.00;99.90
70947;DHT22;58605;48.700;8.760;2023-04-15T06:41:55;2.00;99.90
70947;DHT22;58605;48.700;8.760;2023-04-15T06:44:21;2.10;99.90
70947;DHT22;58605;48.700;8.760;2023-04-15T06:46:47;2.20;99.90
70947;DHT22;58605;48.700;8.760;2023-04-15T06:49:13;2.30;99.90
70947;DHT22;58605;48.700;8.760;2023-04-15T06:51:41;2.40;99.90
70947;DHT22;58605;48.700;8.760;2023-04-15T06:54:07;2.40;99.90
70947;DHT22;58605;48.700;8.760;2023-04-15T06:56:33;2.50;99.90
70947;DHT22;58605;48.700;8.760;2023-04-15T06:58:59;2.60;99.90
70947;DHT22;58605;48.700;8.760;2023-04-15T07:01:26;2.70;99.90
70947;DHT22;58605;48.700;8.760;2023-04-15T07:03:52;2.70;99.90
70947;DHT22;58605;48.700;8.760;2023-04-15T07:06:18;2.80;99.90
70947;DHT22;58605;48.700;8.760;2023-04-15T07:08:46;3.00;99.90
70947;DHT22;58605;48.700;8.760;2023-04-15T07:11:19;3.10;99.90
70947;DHT22;58605;48.700;8.760;2023-04-15T07:13:45;3.30;99.90
70947;DHT22;58605;48.700;8.760;2023-04-15T07:16:11;3.40;99.90
70947;DHT22;58605;48.700;8.760;2023-04-15T07:18:37;3.60;99.90
70947;DHT22;58605;48.700;8.760;2023-04-15T07:21:03;3.90;99.90
70947;DHT22;58605;48.700;8.760;2023-04-15T07:23:29;4.00;99.90
70947;DHT22;58605;48.700;8.760;2023-04-15T07:25:57;4.20;99.90
70947;DHT22;58605;48.700;8.760;2023-04-15T07:28:23;4.30;99.90
70947;DHT22;58605;48.700;8.760;2023-04-15T07:30:49;4.50;99.90
70947;DHT22;58605;48.700;8.760;2023-04-15T07:33:15;4.50;99.90
70947;DHT22;58605;48.700;8.760;2023-04-15T07:35:41;4.70;99.90
70947;DHT22;58605;48.700;8.760;2023-04-15T07:38:08;4.90;99.90
70947;DHT22;58605;48.700;8.760;2023-04-15T07:40:40;4.90;99.90
70947;DHT22;58605;48.700;8.760;2023-04-15T07:43:08;5.00;99.90
70947;DHT22;58605;48.700;8.760;2023-04-15T07:45:34;5.10;99.90
70947;DHT22;58605;48.700;8.760;2023-04-15T07:48:00;5.20;99.90
70947;DHT22;58605;48.700;8.760;2023-04-15T07:50:27;5.30;99.90
70947;DHT22;58605;48.700;8.760;2023-04-15T07:52:53;5.60;99.90
70947;DHT22;58605;48.700;8.760;2023-04-15T07:55:19;5.70;99.90
70947;DHT22;58605;48.700;8.760;2023-04-15T07:57:48;5.70;99.80
70947;DHT22;58605;48.700;8.760;2023-04-15T08:00:16;5.80;99.90
70947;DHT22;58605;48.700;8.760;2023-04-15T08:02:42;6.00;99.00
70947;DHT22;58605;48.700;8.760;2023-04-15T08:05:08;6.10;97.50
70947;DHT22;58605;48.700;8.760;2023-04-15T08:07:36;6.30;96.40
70947;DHT22;58605;48.700;8.760;2023-04-15T08:10:03;6.50;95.90
70947;DHT22;58605;48.700;8.760;2023-04-15T08:12:29;6.60;95.60
70947;DHT22;58605;48.700;8.760;2023-04-15T08:14:55;6.80;96.90
70947;DHT22;58605;48.700;8.760;2023-04-15T08:17:23;7.00;95.90
70947;DHT22;58605;48.700;8.760;2023-04-15T08:19:49;7.10;95.10
70947;DHT22;58605;48.700;8.760;2023-04-15T08:22:16;7.30;95.10
70947;DHT22;58605;48.700;8.760;2023-04-15T08:24:42;7.20;93.20
70947;DHT22;58605;48.700;8.760;2023-04-15T08:27:08;7.10;93.20
70947;DHT22;58605;48.700;8.760;2023-04-15T08:29:34;7.20;93.40
70947;DHT22;58605;48.700;8.760;2023-04-15T08:32:01;7.10;92.30
70947;DHT22;58605;48.700;8.760;2023-04-15T08:34:29;7.10;91.50
70947;DHT22;58605;48.700;8.760;2023-04-15T08:36:55;7.10;90.60
70947;DHT22;58605;48.700;8.760;2023-04-15T08:39:21;6.90;90.10
70947;DHT22;58605;48.700;8.760;2023-04-15T08:41:51;6.90;89.90
70947;DHT22;58605;48.700;8.760;2023-04-15T08:44:22;6.90;89.20
70947;DHT22;58605;48.700;8.760;2023-04-15T08:46:48;6.80;88.60
70947;DHT22;58605;48.700;8.760;2023-04-15T08:49:14;6.80;88.20
70947;DHT22;58605;48.700;8.760;2023-04-15T08:51:44;6.70;87.60
70947;DHT22;58605;48.700;8.760;2023-04-15T08:54:11;6.70;87.40
70947;DHT22;58605;48.700;8.760;2023-04-15T08:56:38;6.60;86.90
70947;DHT22;58605;48.700;8.760;2023-04-15T08:59:04;6.50;87.00
70947;DHT22;58605;48.700;8.760;2023-04-15T09:01:31;6.50;86.80
70947;DHT22;58605;48.700;8.760;2023-04-15T09:03:58;6.50;86.70
70947;DHT22;58605;48.700;8.760;2023-04-15T09:06:24;6.50;86.70
70947;DHT22;58605;48.700;8.760;2023-04-15T09:08:52;6.50;86.50
70947;DHT22;58605;48.700;8.760;2023-04-15T09:11:18;6.40;86.20
70947;DHT22;58605;48.700;8.760;2023-04-15T09:13:46;6.40;86.60
70947;DHT22;58605;48.700;8.760;2023-04-15T09:16:12;6.40;86.80
70947;DHT22;58605;48.700;8.760;2023-04-15T09:18:38;6.40;86.70
70947;DHT22;58605;48.700;8.760;2023-04-15T09:21:05;6.40;86.60
70947;DHT22;58605;48.700;8.760;2023-04-15T09:23:33;6.40;86.40
70947;DHT22;58605;48.700;8.760;2023-04-15T09:26:02;6.40;86.30
70947;DHT22;58605;48.700;8.760;2023-04-15T09:28:28;6.40;86.70
70947;DHT22;58605;48.700;8.760;2023-04-15T09:30:55;6.40;87.00
70947;DHT22;58605;48.700;8.760;2023-04-15T09:33:22;6.40;86.90
70947;DHT22;58605;48.700;8.760;2023-04-15T09:35:56;6.40;86.80
70947;DHT22;58605;48.700;8.760;2023-04-15T09:38:22;6.50;86.90
70947;DHT22;58605;48.700;8.760;2023-04-15T09:40:48;6.90;86.80
70947;DHT22;58605;48.700;8.760;2023-04-15T09:43:16;6.80;85.30
70947;DHT22;58605;48.700;8.760;2023-04-15T09:45:47;6.80;85.50
70947;DHT22;58605;48.700;8.760;2023-04-15T09:48:18;7.10;85.40
70947;DHT22;58605;48.700;8.760;2023-04-15T09:50:45;7.20;84.10
70947;DHT22;58605;48.700;8.760;2023-04-15T09:53:16;7.30;83.30
70947;DHT22;58605;48.700;8.760;2023-04-15T09:55:44;7.10;83.30
70947;DHT22;58605;48.700;8.760;2023-04-15T09:58:18;7.20;83.00
70947;DHT22;58605;48.700;8.760;2023-04-15T10:00:46;7.20;82.70
70947;DHT22;58605;48.700;8.760;2023-04-15T10:03:14;7.50;79.10
70947;DHT22;58605;48.700;8.760;2023-04-15T10:05:42;8.10;76.40
70947;DHT22;58605;48.700;8.760;2023-04-15T10:08:08;8.30;75.10
70947;DHT22;58605;48.700;8.760;2023-04-15T10:10:35;8.00;77.80
70947;DHT22;58605;48.700;8.760;2023-04-15T10:13:02;7.80;79.40
70947;DHT22;58605;48.700;8.760;2023-04-15T10:15:30;8.90;70.70
70947;DHT22;58605;48.700;8.760;2023-04-15T10:17:57;9.00;71.60
70947;DHT22;58605;48.700;8.760;2023-04-15T10:20:25;9.60;66.30
70947;DHT22;58605;48.700;8.760;2023-04-15T10:22:54;9.40;64.60
70947;DHT22;58605;48.700;8.760;2023-04-15T10:25:20;9.10;69.80
70947;DHT22;58605;48.700;8.760;2023-04-15T10:27:47;9.50;67.10
70947;DHT22;58605;48.700;8.760;2023-04-15T10:30:14;10.30;61.50
70947;DHT22;58605;48.700;8.760;2023-04-15T10:32:50;10.70;59.80
70947;DHT22;58605;48.700;8.760;2023-04-15T10:35:16;10.90;59.60
70947;DHT22;58605;48.700;8.760;2023-04-15T10:37:43;10.90;60.60
70947;DHT22;58605;48.700;8.760;2023-04-15T10:40:29;10.50;61.60
70947;DHT22;58605;48.700;8.760;2023-04-15T10:42:59;11.10;60.60
70947;DHT22;58605;48.700;8.760;2023-04-15T10:45:27;11.30;58.60
70947;DHT22;58605;48.700;8.760;2023-04-15T10:48:00;11.40;59.00
70947;DHT22;58605;48.700;8.760;2023-04-15T10:50:29;11.30;58.20
70947;DHT22;58605;48.700;8.760;2023-04-15T10:52:56;11.50;59.40
70947;DHT22;58605;48.700;8.760;2023-04-15T10:55:24;11.60;57.70
70947;DHT22;58605;48.700;8.760;2023-04-15T10:57:51;11.50;58.70
70947;DHT22;58605;48.700;8.760;2023-04-15T11:00:19;11.40;59.30
70947;DHT22;58605;48.700;8.760;2023-04-15T11:02:46;11.40;64.40
70947;DHT22;58605;48.700;8.760;2023-04-15T11:05:15;11.50;60.70
70947;DHT22;58605;48.700;8.760;2023-04-15T11:07:51;11.60;62.60
70947;DHT22;58605;48.700;8.760;2023-04-15T11:10:51;11.50;62.00
70947;DHT22;58605;48.700;8.760;2023-04-15T11:13:19;11.60;60.70
70947;DHT22;58605;48.700;8.760;2023-04-15T11:15:53;11.50;61.40
70947;DHT22;58605;48.700;8.760;2023-04-15T11:18:21;11.40;60.40
70947;DHT22;58605;48.700;8.760;2023-04-15T11:20:50;11.40;60.90
70947;DHT22;58605;48.700;8.760;2023-04-15T11:23:18;11.40;61.60
70947;DHT22;58605;48.700;8.760;2023-04-15T11:25:44;11.40;61.30
70947;DHT22;58605;48.700;8.760;2023-04-15T11:28:11;11.50;61.90
70947;DHT22;58605;48.700;8.760;2023-04-15T11:30:38;11.50;62.50
70947;DHT22;58605;48.700;8.760;2023-04-15T11:33:05;11.40;60.50
70947;DHT22;58605;48.700;8.760;2023-04-15T11:35:33;11.40;59.30
70947;DHT22;58605;48.700;8.760;2023-04-15T11:38:04;11.50;59.50
70947;DHT22;58605;48.700;8.760;2023-04-15T11:40:31;11.50;57.50
70947;DHT22;58605;48.700;8.760;2023-04-15T11:43:04;11.50;59.50
70947;DHT22;58605;48.700;8.760;2023-04-15T11:45:30;11.60;61.40
70947;DHT22;58605;48.700;8.760;2023-04-15T11:48:04;11.60;61.60
70947;DHT22;58605;48.700;8.760;2023-04-15T11:50:31;11.70;60.50
70947;DHT22;58605;48.700;8.760;2023-04-15T11:52:58;11.80;59.80
70947;DHT22;58605;48.700;8.760;2023-04-15T11:55:26;11.90;58.60
70947;DHT22;58605;48.700;8.760;2023-04-15T11:58:06;11.70;57.60
70947;DHT22;58605;48.700;8.760;2023-04-15T12:00:33;11.60;58.80
70947;DHT22;58605;48.700;8.760;2023-04-15T12:03:11;11.50;59.40
70947;DHT22;58605;48.700;8.760;2023-04-15T12:06:05;11.60;59.60
70947;DHT22;58605;48.700;8.760;2023-04-15T12:09:08;11.80;59.10
70947;DHT22;58605;48.700;8.760;2023-04-15T12:11:44;11.80;56.90
70947;DHT22;58605;48.700;8.760;2023-04-15T12:14:20;11.80;59.60
70947;DHT22;58605;48.700;8.760;2023-04-15T12:16:50;11.60;61.20
70947;DHT22;58605;48.700;8.760;2023-04-15T12:19:22;11.70;58.30
70947;DHT22;58605;48.700;8.760;2023-04-15T12:21:49;11.80;58.40
70947;DHT22;58605;48.700;8.760;2023-04-15T12:24:19;12.00;58.70
70947;DHT22;58605;48.700;8.760;2023-04-15T12:26:49;12.00;59.60
70947;DHT22;58605;48.700;8.760;2023-04-15T12:29:16;11.90;61.90
70947;DHT22;58605;48.700;8.760;2023-04-15T12:31:50;11.90;59.20
70947;DHT22;58605;48.700;8.760;2023-04-15T12:34:17;11.80;58.10
70947;DHT22;58605;48.700;8.760;2023-04-15T12:36:44;11.60;58.80
70947;DHT22;58605;48.700;8.760;2023-04-15T12:39:10;11.50;58.20
70947;DHT22;58605;48.700;8.760;2023-04-15T12:41:36;11.70;58.70
70947;DHT22;58605;48.700;8.760;2023-04-15T12:44:04;11.70;59.10
70947;DHT22;58605;48.700;8.760;2023-04-15T12:46:30;11.60;58.20
70947;DHT22;58605;48.700;8.760;2023-04-15T12:48:56;11.50;58.90
70947;DHT22;58605;48.700;8.760;2023-04-15T12:51:22;11.50;59.90
70947;DHT22;58605;48.700;8.760;2023-04-15T12:53:48;11.40;59.60
70947;DHT22;58605;48.700;8.760;2023-04-15T12:56:14;11.60;60.90
70947;DHT22;58605;48.700;8.760;2023-04-15T12:58:41;11.70;60.00
70947;DHT22;58605;48.700;8.760;2023-04-15T13:01:09;11.30;60.60
70947;DHT22;58605;48.700;8.760;2023-04-15T13:03:35;11.00;61.80
70947;DHT22;58605;48.700;8.760;2023-04-15T13:06:01;11.00;61.00
70947;DHT22;58605;48.700;8.760;2023-04-15T13:08:29;10.90;61.20
70947;DHT22;58605;48.700;8.760;2023-04-15T13:10:56;10.90;61.60
70947;DHT22;58605;48.700;8.760;2023-04-15T13:13:22;10.90;62.10
70947;DHT22;58605;48.700;8.760;2023-04-15T13:15:48;11.60;59.30
70947;DHT22;58605;48.700;8.760;2023-04-15T13:18:15;11.80;58.00
70947;DHT22;58605;48.700;8.760;2023-04-15T13:20:41;11.80;57.90
70947;DHT22;58605;48.700;8.760;2023-04-15T13:23:07;12.00;59.50
70947;DHT22;58605;48.700;8.760;2023-04-15T13:25:33;12.00;55.90
70947;DHT22;58605;48.700;8.760;2023-04-15T13:27:59;11.90;54.60
70947;DHT22;58605;48.700;8.760;2023-04-15T13:30:26;11.80;54.80
70947;DHT22;58605;48.700;8.760;2023-04-15T13:32:52;11.70;53.00
70947;DHT22;58605;48.700;8.760;2023-04-15T13:35:20;11.70;54.20
70947;DHT22;58605;48.700;8.760;2023-04-15T13:37:46;11.60;56.90
70947;DHT22;58605;48.700;8.760;2023-04-15T13:40:12;11.70;58.10
70947;DHT22;58605;48.700;8.760;2023-04-15T13:42:38;11.70;57.60
70947;DHT22;58605;48.700;8.760;2023-04-15T13:45:06;11.60;57.70
70947;DHT22;58605;48.700;8.760;2023-04-15T13:47:32;11.60;57.20
70947;DHT22;58605;48.700;8.760;2023-04-15T13:49:58;11.60;56.90
70947;DHT22;58605;48.700;8.760;2023-04-15T13:52:26;11.60;53.00
70947;DHT22;58605;48.700;8.760;2023-04-15T13:54:52;11.60;50.60
70947;DHT22;58605;48.700;8.760;2023-04-15T13:57:18;11.50;51.90
70947;DHT22;58605;48.700;8.760;2023-04-15T13:59:44;11.40;53.20
70947;DHT22;58605;48.700;8.760;2023-04-15T14:02:10;11.40;52.60
70947;DHT22;58605;48.700;8.760;2023-04-15T14:04:37;11.40;51.50
70947;DHT22;58605;48.700;8.760;2023-04-15T14:07:03;11.30;52.60
70947;DHT22;58605;48.700;8.760;2023-04-15T14:09:30;11.30;50.60
70947;DHT22;58605;48.700;8.760;2023-04-15T14:11:56;11.40;48.10
70947;DHT22;58605;48.700;8.760;2023-04-15T14:14:24;11.40;46.00
70947;DHT22;58605;48.700;8.760;2023-04-15T14:16:50;11.40;47.00
70947;DHT22;58605;48.700;8.760;2023-04-15T14:19:16;11.40;49.50
70947;DHT22;58605;48.700;8.760;2023-04-15T14:21:42;11.40;50.30
70947;DHT22;58605;48.700;8.760;2023-04-15T14:24:08;11.30;48.70
70947;DHT22;58605;48.700;8.760;2023-04-15T14:26:36;11.30;50.80
70947;DHT22;58605;48.700;8.760;2023-04-15T14:29:02;11.30;49.60
70947;DHT22;58605;48.700;8.760;2023-04-15T14:31:28;11.30;50.30
70947;DHT22;58605;48.700;8.760;2023-04-15T14:33:54;11.20;50.60
70947;DHT22;58605;48.700;8.760;2023-04-15T14:36:20;11.20;51.10
70947;DHT22;58605;48.700;8.760;2023-04-15T14:38:46;11.20;51.70
70947;DHT22;58605;48.700;8.760;2023-04-15T14:41:12;11.30;52.70
70947;DHT22;58605;48.700;8.760;2023-04-15T14:43:39;11.30;52.60
70947;DHT22;58605;48.700;8.760;2023-04-15T14:46:05;11.30;53.40
70947;DHT22;58605;48.700;8.760;2023-04-15T14:48:33;11.40;53.90
70947;DHT22;58605;48.700;8.760;2023-04-15T14:50:59;11.30;54.40
70947;DHT22;58605;48.700;8.760;2023-04-15T14:53:25;11.10;55.30
70947;DHT22;58605;48.700;8.760;2023-04-15T14:55:51;11.00;56.70
70947;DHT22;58605;48.700;8.760;2023-04-15T14:58:16;10.90;56.80
70947;DHT22;58605;48.700;8.760;2023-04-15T15:00:44;10.90;57.20
70947;DHT22;58605;48.700;8.760;2023-04-15T15:03:11;11.00;56.90
70947;DHT22;58605;48.700;8.760;2023-04-15T15:05:37;11.00;57.00
70947;DHT22;58605;48.700;8.760;2023-04-15T15:08:04;11.10;57.40
70947;DHT22;58605;48.700;8.760;2023-04-15T15:10:30;11.10;58.10
70947;DHT22;58605;48.700;8.760;2023-04-15T15:12:56;11.20;58.40
70947;DHT22;58605;48.700;8.760;2023-04-15T15:15:22;11.30;59.30
70947;DHT22;58605;48.700;8.760;2023-04-15T15:17:49;11.30;60.20
70947;DHT22;58605;48.700;8.760;2023-04-15T15:20:16;11.30;59.90
70947;DHT22;58605;48.700;8.760;2023-04-15T15:22:43;11.40;59.70
70947;DHT22;58605;48.700;8.760;2023-04-15T15:25:09;11.20;59.80
70947;DHT22;58605;48.700;8.760;2023-04-15T15:27:35;11.00;60.00
70947;DHT22;58605;48.700;8.760;2023-04-15T15:30:02;10.90;59.40
70947;DHT22;58605;48.700;8.760;2023-04-15T15:32:28;10.80;59.40
70947;DHT22;58605;48.700;8.760;2023-04-15T15:34:56;10.80;59.50
70947;DHT22;58605;48.700;8.760;2023-04-15T15:37:22;10.70;59.60
70947;DHT22;58605;48.700;8.760;2023-04-15T15:39:48;10.70;60.20